sensor_id;sensor_type;location;lat;lon;timestamp;temperature;humidity
81842;DHT22;71284;50.918;7.092;2024-03-02T00:00:29;10.30;51.60
81842;DHT22;71284;50.918;7.092;2024-03-02T00:02:56;10.40;51.20
81842;DHT22;71284;50.918;7.092;2024-03-02T00:05:22;10.40;51.00
81842;DHT22;71284;50.918;7.092;2024-03-02T00:07:53;10.50;50.60
81842;DHT22;71284;50.918;7.092;2024-03-02T00:10:21;10.40;51.20
81842;DHT22;71284;50.918;7.092;2024-03-02T00:12:47;10.30;51.40
81842;DHT22;71284;50.918;7.092;2024-03-02T00:17:53;10.30;51.50
81842;DHT22;71284;50.918;7.092;2024-03-02T00:20:20;10.20;51.60
81842;DHT22;71284;50.918;7.092;2024-03-02T00:22:45;10.20;51.90
81842;DHT22;71284;50.918;7.092;2024-03-02T00:25:12;10.40;51.40
81842;DHT22;71284;50.918;7.092;2024-03-02T00:27:39;10.40;51.40
81842;DHT22;71284;50.918;7.092;2024-03-02T00:30:30;10.50;50.90
81842;DHT22;71284;50.918;7.092;2024-03-02T00:32:35;10.40;51.50
81842;DHT22;71284;50.918;7.092;2024-03-02T00:35:04;10.40;51.30
81842;DHT22;71284;50.918;7.092;2024-03-02T00:37:29;10.50;50.90
81842;DHT22;71284;50.918;7.092;2024-03-02T00:39:56;10.40;51.20
81842;DHT22;71284;50.918;7.092;2024-03-02T00:42:22;10.40;52.10
81842;DHT22;71284;50.918;7.092;2024-03-02T00:44:49;10.50;51.20
81842;DHT22;71284;50.918;7.092;2024-03-02T00:47:15;10.70;51.20
81842;DHT22;71284;50.918;7.092;2024-03-02T00:49:42;10.70;50.40
81842;DHT22;71284;50.918;7.092;2024-03-02T00:52:08;10.70;51.00
81842;DHT22;71284;50.918;7.092;2024-03-02T00:54:35;10.40;51.10
81842;DHT22;71284;50.918;7.092;2024-03-02T00:57:02;10.60;50.50
81842;DHT22;71284;50.918;7.092;2024-03-02T00:59:28;10.70;50.30
81842;DHT22;71284;50.918;7.092;2024-03-02T01:01:55;10.70;49.90
81842;DHT22;71284;50.918;7.092;2024-03-02T01:04:22;10.80;49.80
81842;DHT22;71284;50.918;7.092;2024-03-02T01:06:48;10.70;50.00
81842;DHT22;71284;50.918;7.092;2024-03-02T01:09:15;10.80;49.60
81842;DHT22;71284;50.918;7.092;2024-03-02T01:11:41;10.90;49.40
81842;DHT22;71284;50.918;7.092;2024-03-02T01:14:08;11.00;48.60
81842;DHT22;71284;50.918;7.092;2024-03-02T01:16:34;11.00;48.80
81842;DHT22;71284;50.918;7.092;2024-03-02T01:19:01;10.80;49.30
81842;DHT22;71284;50.918;7.092;2024-03-02T01:21:28;10.70;49.80
81842;DHT22;71284;50.918;7.092;2024-03-02T01:23:54;10.70;49.40
81842;DHT22;71284;50.918;7.092;2024-03-02T01:26:21;10.70;49.60
81842;DHT22;71284;50.918;7.092;2024-03-02T01:28:47;10.30;50.50
81842;DHT22;71284;50.918;7.092;2024-03-02T01:31:14;10.40;50.50
81842;DHT22;71284;50.918;7.092;2024-03-02T01:33:41;10.60;49.90
81842;DHT22;71284;50.918;7.092;2024-03-02T01:36:07;10.80;49.20
81842;DHT22;71284;50.918;7.092;2024-03-02T01:38:34;10.60;49.50
81842;DHT22;71284;50.918;7.092;2024-03-02T01:41:00;10.60;49.40
81842;DHT22;71284;50.918;7.092;2024-03-02T01:43:27;10.60;49.50
81842;DHT22;71284;50.918;7.092;2024-03-02T01:45:54;10.70;49.60
81842;DHT22;71284;50.918;7.092;2024-03-02T01:48:20;10.60;49.50
81842;DHT22;71284;50.918;7.092;2024-03-02T01:50:47;10.70;49.20
81842;DHT22;71284;50.918;7.092;2024-03-02T01:53:13;10.90;48.60
81842;DHT22;71284;50.918;7.092;2024-03-02T01:55:40;11.00;48.10
81842;DHT22;71284;50.918;7.092;2024-03-02T01:58:07;10.90;48.30
81842;DHT22;71284;50.918;7.092;2024-03-02T02:00:33;10.70;49.20
81842;DHT22;71284;50.918;7.092;2024-03-02T02:03:00;10.70;48.80
81842;DHT22;71284;50.918;7.092;2024-03-02T02:05:26;10.70;49.10
81842;DHT22;71284;50.918;7.092;2024-03-02T02:07:53;10.70;48.80
81842;DHT22;71284;50.918;7.092;2024-03-02T02:10:19;10.60;48.90
81842;DHT22;71284;50.918;7.092;2024-03-02T02:12:46;10.70;48.80
81842;DHT22;71284;50.918;7.092;2024-03-02T02:15:24;11.00;48.10
81842;DHT22;71284;50.918;7.092;2024-03-02T02:17:50;11.00;48.00
81842;DHT22;71284;50.918;7.092;2024-03-02T02:20:17;11.10;47.80
81842;DHT22;71284;50.918;7.092;2024-03-02T02:22:54;11.10;47.60
81842;DHT22;71284;50.918;7.092;2024-03-02T02:25:20;11.20;47.40
81842;DHT22;71284;50.918;7.092;2024-03-02T02:27:46;11.10;47.60
81842;DHT22;71284;50.918;7.092;2024-03-02T02:30:13;10.70;49.00
81842;DHT22;71284;50.918;7.092;2024-03-02T02:32:40;10.60;49.00
81842;DHT22;71284;50.918;7.092;2024-03-02T02:35:07;10.80;48.40
81842;DHT22;71284;50.918;7.092;2024-03-02T02:37:33;10.80;48.70
81842;DHT22;71284;50.918;7.092;2024-03-02T02:40:00;10.70;48.80
81842;DHT22;71284;50.918;7.092;2024-03-02T02:42:26;10.80;48.50
81842;DHT22;71284;50.918;7.092;2024-03-02T02:44:53;11.00;47.80
81842;DHT22;71284;50.918;7.092;2024-03-02T02:47:19;10.90;48.20
81842;DHT22;71284;50.918;7.092;2024-03-02T02:49:46;10.90;48.20
81842;DHT22;71284;50.918;7.092;2024-03-02T02:52:13;10.90;48.20
81842;DHT22;71284;50.918;7.092;2024-03-02T02:54:39;11.10;47.70
81842;DHT22;71284;50.918;7.092;2024-03-02T02:57:06;11.00;48.10
81842;DHT22;71284;50.918;7.092;2024-03-02T02:59:32;11.00;47.90
81842;DHT22;71284;50.918;7.092;2024-03-02T03:01:59;10.90;48.20
81842;DHT22;71284;50.918;7.092;2024-03-02T03:04:26;11.00;48.00
81842;DHT22;71284;50.918;7.092;2024-03-02T03:06:52;11.10;47.90
81842;DHT22;71284;50.918;7.092;2024-03-02T03:09:19;11.10;48.70
81842;DHT22;71284;50.918;7.092;2024-03-02T03:11:45;11.10;47.70
81842;DHT22;71284;50.918;7.092;2024-03-02T03:14:12;11.10;48.10
81842;DHT22;71284;50.918;7.092;2024-03-02T03:16:39;11.20;47.60
81842;DHT22;71284;50.918;7.092;2024-03-02T03:19:05;10.90;48.20
81842;DHT22;71284;50.918;7.092;2024-03-02T03:21:32;10.80;48.50
81842;DHT22;71284;50.918;7.092;2024-03-02T03:23:58;10.80;48.50
81842;DHT22;71284;50.918;7.092;2024-03-02T03:26:25;11.00;48.20
81842;DHT22;71284;50.918;7.092;2024-03-02T03:28:52;10.90;48.40
81842;DHT22;71284;50.918;7.092;2024-03-02T03:31:19;11.00;48.40
81842;DHT22;71284;50.918;7.092;2024-03-02T03:33:45;11.10;47.60
81842;DHT22;71284;50.918;7.092;2024-03-02T03:36:12;11.10;47.50
81842;DHT22;71284;50.918;7.092;2024-03-02T03:38:39;11.10;48.10
81842;DHT22;71284;50.918;7.092;2024-03-02T03:41:05;11.10;47.60
81842;DHT22;71284;50.918;7.092;2024-03-02T03:43:32;10.90;48.20
81842;DHT22;71284;50.918;7.092;2024-03-02T03:45:58;10.80;48.30
81842;DHT22;71284;50.918;7.092;2024-03-02T03:48:25;11.00;47.90
81842;DHT22;71284;50.918;7.092;2024-03-02T03:50:52;11.20;47.20
81842;DHT22;71284;50.918;7.092;2024-03-02T03:53:18;11.20;47.10
81842;DHT22;71284;50.918;7.092;2024-03-02T03:55:45;11.20;47.60
81842;DHT22;71284;50.918;7.092;2024-03-02T03:58:11;11.30;47.10
81842;DHT22;71284;50.918;7.092;2024-03-02T04:00:38;11.20;47.10
81842;DHT22;71284;50.918;7.092;2024-03-02T04:03:05;11.10;47.70
81842;DHT22;71284;50.918;7.092;2024-03-02T04:05:31;11.10;47.70
81842;DHT22;71284;50.918;7.092;2024-03-02T04:07:58;10.90;47.80
81842;DHT22;71284;50.918;7.092;2024-03-02T04:10:24;11.00;47.60
81842;DHT22;71284;50.918;7.092;2024-03-02T04:12:51;11.00;47.60
81842;DHT22;71284;50.918;7.092;2024-03-02T04:15:18;10.80;48.20
81842;DHT22;71284;50.918;7.092;2024-03-02T04:17:44;10.70;48.50
81842;DHT22;71284;50.918;7.092;2024-03-02T04:20:11;10.70;48.70
81842;DHT22;71284;50.918;7.092;2024-03-02T04:22:37;10.50;49.30
81842;DHT22;71284;50.918;7.092;2024-03-02T04:25:04;10.60;48.80
81842;DHT22;71284;50.918;7.092;2024-03-02T04:27:31;10.70;48.20
81842;DHT22;71284;50.918;7.092;2024-03-02T04:29:57;10.90;47.80
81842;DHT22;71284;50.918;7.092;2024-03-02T04:32:24;10.90;47.80
81842;DHT22;71284;50.918;7.092;2024-03-02T04:34:50;10.90;47.90
81842;DHT22;71284;50.918;7.092;2024-03-02T04:37:17;10.80;47.80
81842;DHT22;71284;50.918;7.092;2024-03-02T04:39:44;10.80;48.00
81842;DHT22;71284;50.918;7.092;2024-03-02T04:42:10;10.90;48.20
81842;DHT22;71284;50.918;7.092;2024-03-02T04:44:37;10.80;48.40
81842;DHT22;71284;50.918;7.092;2024-03-02T04:47:04;10.70;48.20
81842;DHT22;71284;50.918;7.092;2024-03-02T04:49:30;10.50;48.80
81842;DHT22;71284;50.918;7.092;2024-03-02T04:51:57;10.40;49.20
81842;DHT22;71284;50.918;7.092;2024-03-02T04:54:23;10.20;49.80
81842;DHT22;71284;50.918;7.092;2024-03-02T04:56:50;10.00;51.40
81842;DHT22;71284;50.918;7.092;2024-03-02T04:59:17;10.10;50.20
81842;DHT22;71284;50.918;7.092;2024-03-02T05:01:43;10.20;49.70
81842;DHT22;71284;50.918;7.092;2024-03-02T05:04:10;10.30;49.80
81842;DHT22;71284;50.918;7.092;2024-03-02T05:06:38;10.10;50.20
81842;DHT22;71284;50.918;7.092;2024-03-02T05:09:05;10.10;50.10
81842;DHT22;71284;50.918;7.092;2024-03-02T05:11:31;10.20;49.70
81842;DHT22;71284;50.918;7.092;2024-03-02T05:14:14;10.20;49.50
81842;DHT22;71284;50.918;7.092;2024-03-02T05:16:40;10.20;49.50
81842;DHT22;71284;50.918;7.092;2024-03-02T05:19:07;10.20;49.70
81842;DHT22;71284;50.918;7.092;2024-03-02T05:21:34;10.10;50.30
81842;DHT22;71284;50.918;7.092;2024-03-02T05:24:00;10.10;50.20
81842;DHT22;71284;50.918;7.092;2024-03-02T05:26:27;10.00;50.50
81842;DHT22;71284;50.918;7.092;2024-03-02T05:28:54;10.10;50.10
81842;DHT22;71284;50.918;7.092;2024-03-02T05:31:21;10.10;50.10
81842;DHT22;71284;50.918;7.092;2024-03-02T05:33:48;10.10;50.20
81842;DHT22;71284;50.918;7.092;2024-03-02T05:36:14;9.90;50.80
81842;DHT22;71284;50.918;7.092;2024-03-02T05:38:41;9.90;50.70
81842;DHT22;71284;50.918;7.092;2024-03-02T05:41:07;9.90;50.80
81842;DHT22;71284;50.918;7.092;2024-03-02T05:43:34;9.90;50.80
81842;DHT22;71284;50.918;7.092;2024-03-02T05:46:00;10.00;50.50
81842;DHT22;71284;50.918;7.092;2024-03-02T05:48:28;9.70;51.50
81842;DHT22;71284;50.918;7.092;2024-03-02T05:50:54;9.60;51.60
81842;DHT22;71284;50.918;7.092;2024-03-02T05:53:21;9.60;51.70
81842;DHT22;71284;50.918;7.092;2024-03-02T05:55:48;9.60;51.60
81842;DHT22;71284;50.918;7.092;2024-03-02T05:58:14;9.60;51.70
81842;DHT22;71284;50.918;7.092;2024-03-02T06:00:57;9.60;52.10
81842;DHT22;71284;50.918;7.092;2024-03-02T06:03:23;9.40;52.20
81842;DHT22;71284;50.918;7.092;2024-03-02T06:05:50;9.40;52.60
81842;DHT22;71284;50.918;7.092;2024-03-02T06:08:16;9.30;53.10
81842;DHT22;71284;50.918;7.092;2024-03-02T06:10:43;9.20;54.10
81842;DHT22;71284;50.918;7.092;2024-03-02T06:13:10;9.20;53.20
81842;DHT22;71284;50.918;7.092;2024-03-02T06:15:36;9.20;53.50
81842;DHT22;71284;50.918;7.092;2024-03-02T06:18:03;9.20;53.20
81842;DHT22;71284;50.918;7.092;2024-03-02T06:20:30;9.20;53.30
81842;DHT22;71284;50.918;7.092;2024-03-02T06:22:57;9.20;53.70
81842;DHT22;71284;50.918;7.092;2024-03-02T06:25:23;9.40;53.10
81842;DHT22;71284;50.918;7.092;2024-03-02T06:27:50;9.30;53.60
81842;DHT22;71284;50.918;7.092;2024-03-02T06:30:17;9.40;53.10
81842;DHT22;71284;50.918;7.092;2024-03-02T06:32:43;9.60;52.40
81842;DHT22;71284;50.918;7.092;2024-03-02T06:35:10;9.80;51.80
81842;DHT22;71284;50.918;7.092;2024-03-02T06:37:37;9.70;52.40
81842;DHT22;71284;50.918;7.092;2024-03-02T06:40:03;9.70;52.40
81842;DHT22;71284;50.918;7.092;2024-03-02T06:42:30;9.70;52.20
81842;DHT22;71284;50.918;7.092;2024-03-02T06:44:57;9.70;52.60
81842;DHT22;71284;50.918;7.092;2024-03-02T06:47:24;9.60;52.80
81842;DHT22;71284;50.918;7.092;2024-03-02T06:49:51;9.70;52.40
81842;DHT22;71284;50.918;7.092;2024-03-02T06:52:17;9.50;53.50
81842;DHT22;71284;50.918;7.092;2024-03-02T06:54:44;9.50;53.40
81842;DHT22;71284;50.918;7.092;2024-03-02T06:57:10;9.70;52.70
81842;DHT22;71284;50.918;7.092;2024-03-02T06:59:37;9.90;51.90
81842;DHT22;71284;50.918;7.092;2024-03-02T07:02:04;10.00;51.80
81842;DHT22;71284;50.918;7.092;2024-03-02T07:04:30;10.00;52.40
81842;DHT22;71284;50.918;7.092;2024-03-02T07:06:57;9.80;52.20
81842;DHT22;71284;50.918;7.092;2024-03-02T07:09:23;10.00;51.80
81842;DHT22;71284;50.918;7.092;2024-03-02T07:11:50;10.10;51.50
81842;DHT22;71284;50.918;7.092;2024-03-02T07:14:16;10.00;52.00
81842;DHT22;71284;50.918;7.092;2024-03-02T07:16:43;10.10;51.60
81842;DHT22;71284;50.918;7.092;2024-03-02T07:19:10;10.20;51.20
81842;DHT22;71284;50.918;7.092;2024-03-02T07:21:36;10.30;50.80
81842;DHT22;71284;50.918;7.092;2024-03-02T07:24:03;10.50;50.50
81842;DHT22;71284;50.918;7.092;2024-03-02T07:26:30;10.50;50.20
81842;DHT22;71284;50.918;7.092;2024-03-02T07:28:56;10.60;49.90
81842;DHT22;71284;50.918;7.092;2024-03-02T07:31:23;10.50;50.20
81842;DHT22;71284;50.918;7.092;2024-03-02T07:33:49;10.50;50.30
81842;DHT22;71284;50.918;7.092;2024-03-02T07:36:16;10.70;49.70
81842;DHT22;71284;50.918;7.092;2024-03-02T07:38:42;10.80;49.40
81842;DHT22;71284;50.918;7.092;2024-03-02T07:41:09;11.00;48.90
81842;DHT22;71284;50.918;7.092;2024-03-02T07:43:36;11.00;49.10
81842;DHT22;71284;50.918;7.092;2024-03-02T07:46:02;11.20;48.60
81842;DHT22;71284;50.918;7.092;2024-03-02T07:48:29;11.20;48.60
81842;DHT22;71284;50.918;7.092;2024-03-02T07:50:55;11.00;49.30
81842;DHT22;71284;50.918;7.092;2024-03-02T07:53:22;10.90;49.60
81842;DHT22;71284;50.918;7.092;2024-03-02T07:55:49;11.00;49.30
81842;DHT22;71284;50.918;7.092;2024-03-02T07:58:15;11.10;49.00
81842;DHT22;71284;50.918;7.092;2024-03-02T08:00:42;11.20;48.80
81842;DHT22;71284;50.918;7.092;2024-03-02T08:03:08;11.00;49.00
81842;DHT22;71284;50.918;7.092;2024-03-02T08:05:35;11.00;49.50
81842;DHT22;71284;50.918;7.092;2024-03-02T08:08:02;11.30;48.50
81842;DHT22;71284;50.918;7.092;2024-03-02T08:10:28;11.40;48.40
81842;DHT22;71284;50.918;7.092;2024-03-02T08:12:55;11.60;48.50
81842;DHT22;71284;50.918;7.092;2024-03-02T08:15:21;11.80;47.90
81842;DHT22;71284;50.918;7.092;2024-03-02T08:17:48;11.80;47.80
81842;DHT22;71284;50.918;7.092;2024-03-02T08:20:15;12.00;46.70
81842;DHT22;71284;50.918;7.092;2024-03-02T08:22:41;12.20;46.40
81842;DHT22;71284;50.918;7.092;2024-03-02T08:25:08;12.20;46.10
81842;DHT22;71284;50.918;7.092;2024-03-02T08:27:34;12.30;46.20
81842;DHT22;71284;50.918;7.092;2024-03-02T08:30:01;12.40;46.30
81842;DHT22;71284;50.918;7.092;2024-03-02T08:32:28;12.70;45.50
81842;DHT22;71284;50.918;7.092;2024-03-02T08:34:54;13.00;45.50
81842;DHT22;71284;50.918;7.092;2024-03-02T08:37:21;13.20;44.20
81842;DHT22;71284;50.918;7.092;2024-03-02T08:39:47;13.20;44.40
81842;DHT22;71284;50.918;7.092;2024-03-02T08:42:14;13.60;43.70
81842;DHT22;71284;50.918;7.092;2024-03-02T08:44:40;14.40;41.10
81842;DHT22;71284;50.918;7.092;2024-03-02T08:47:07;14.80;40.80
81842;DHT22;71284;50.918;7.092;2024-03-02T08:49:35;14.90;40.60
81842;DHT22;71284;50.918;7.092;2024-03-02T08:52:00;14.30;41.80
81842;DHT22;71284;50.918;7.092;2024-03-02T08:54:27;14.30;42.30
81842;DHT22;71284;50.918;7.092;2024-03-02T08:56:53;14.20;42.90
81842;DHT22;71284;50.918;7.092;2024-03-02T08:59:20;14.80;41.50
81842;DHT22;71284;50.918;7.092;2024-03-02T09:01:47;14.70;41.00
81842;DHT22;71284;50.918;7.092;2024-03-02T09:04:13;14.70;41.20
81842;DHT22;71284;50.918;7.092;2024-03-02T09:06:40;14.40;42.00
81842;DHT22;71284;50.918;7.092;2024-03-02T09:09:06;14.60;42.30
81842;DHT22;71284;50.918;7.092;2024-03-02T09:11:33;14.60;41.30
81842;DHT22;71284;50.918;7.092;2024-03-02T09:14:00;14.70;41.20
81842;DHT22;71284;50.918;7.092;2024-03-02T09:16:26;14.80;40.50
81842;DHT22;71284;50.918;7.092;2024-03-02T09:18:53;15.20;39.80
81842;DHT22;71284;50.918;7.092;2024-03-02T09:21:19;16.00;38.80
81842;DHT22;71284;50.918;7.092;2024-03-02T09:23:46;16.40;37.80
81842;DHT22;71284;50.918;7.092;2024-03-02T09:26:13;15.80;39.00
81842;DHT22;71284;50.918;7.092;2024-03-02T09:28:43;16.00;38.80
81842;DHT22;71284;50.918;7.092;2024-03-02T09:31:09;16.30;38.10
81842;DHT22;71284;50.918;7.092;2024-03-02T09:33:36;16.60;38.10
81842;DHT22;71284;50.918;7.092;2024-03-02T09:36:04;17.10;36.70
81842;DHT22;71284;50.918;7.092;2024-03-02T09:38:32;16.90;37.10
81842;DHT22;71284;50.918;7.092;2024-03-02T09:40:59;16.30;37.70
81842;DHT22;71284;50.918;7.092;2024-03-02T09:43:25;15.50;39.30
81842;DHT22;71284;50.918;7.092;2024-03-02T09:45:52;15.30;39.20
81842;DHT22;71284;50.918;7.092;2024-03-02T09:48:18;15.00;39.90
81842;DHT22;71284;50.918;7.092;2024-03-02T09:50:45;14.90;40.30
81842;DHT22;71284;50.918;7.092;2024-03-02T09:53:12;15.10;40.10
81842;DHT22;71284;50.918;7.092;2024-03-02T09:55:38;15.30;39.50
81842;DHT22;71284;50.918;7.092;2024-03-02T09:58:05;15.40;39.30
81842;DHT22;71284;50.918;7.092;2024-03-02T10:00:31;15.40;39.60
81842;DHT22;71284;50.918;7.092;2024-03-02T10:02:58;15.60;39.10
81842;DHT22;71284;50.918;7.092;2024-03-02T10:05:25;15.60;38.60
81842;DHT22;71284;50.918;7.092;2024-03-02T10:08:00;15.50;39.10
81842;DHT22;71284;50.918;7.092;2024-03-02T10:10:36;15.40;39.10
81842;DHT22;71284;50.918;7.092;2024-03-02T10:13:04;15.10;39.50
81842;DHT22;71284;50.918;7.092;2024-03-02T10:15:30;15.00;40.00
81842;DHT22;71284;50.918;7.092;2024-03-02T10:17:56;15.10;40.30
81842;DHT22;71284;50.918;7.092;2024-03-02T10:20:26;14.80;40.50
81842;DHT22;71284;50.918;7.092;2024-03-02T10:22:52;15.00;39.90
81842;DHT22;71284;50.918;7.092;2024-03-02T10:25:29;15.00;40.40
81842;DHT22;71284;50.918;7.092;2024-03-02T10:27:56;15.30;39.50
81842;DHT22;71284;50.918;7.092;2024-03-02T10:30:22;15.70;39.40
81842;DHT22;71284;50.918;7.092;2024-03-02T10:32:49;15.70;40.00
81842;DHT22;71284;50.918;7.092;2024-03-02T10:35:16;15.90;37.50
81842;DHT22;71284;50.918;7.092;2024-03-02T10:37:42;15.70;39.20
81842;DHT22;71284;50.918;7.092;2024-03-02T10:40:10;15.60;37.70
81842;DHT22;71284;50.918;7.092;2024-03-02T10:42:37;15.80;38.30
81842;DHT22;71284;50.918;7.092;2024-03-02T10:45:04;15.80;38.30
81842;DHT22;71284;50.918;7.092;2024-03-02T10:47:31;15.30;39.10
81842;DHT22;71284;50.918;7.092;2024-03-02T10:49:58;15.20;39.40
81842;DHT22;71284;50.918;7.092;2024-03-02T10:52:24;15.40;39.20
81842;DHT22;71284;50.918;7.092;2024-03-02T10:54:50;15.60;38.10
81842;DHT22;71284;50.918;7.092;2024-03-02T10:57:17;15.80;37.80
81842;DHT22;71284;50.918;7.092;2024-03-02T10:59:55;15.90;38.10
81842;DHT22;71284;50.918;7.092;2024-03-02T11:02:22;16.50;37.80
81842;DHT22;71284;50.918;7.092;2024-03-02T11:04:49;16.60;37.50
81842;DHT22;71284;50.918;7.092;2024-03-02T11:07:15;16.80;37.40
81842;DHT22;71284;50.918;7.092;2024-03-02T11:09:45;16.80;36.80
81842;DHT22;71284;50.918;7.092;2024-03-02T11:12:12;16.90;36.90
81842;DHT22;71284;50.918;7.092;2024-03-02T11:14:41;17.20;36.70
81842;DHT22;71284;50.918;7.092;2024-03-02T11:17:07;17.30;36.20
81842;DHT22;71284;50.918;7.092;2024-03-02T11:19:33;17.30;36.10
81842;DHT22;71284;50.918;7.092;2024-03-02T11:22:00;17.50;35.90
81842;DHT22;71284;50.918;7.092;2024-03-02T11:24:30;17.70;35.40
81842;DHT22;71284;50.918;7.092;2024-03-02T11:26:57;17.10;37.00
81842;DHT22;71284;50.918;7.092;2024-03-02T11:29:42;17.30;36.40
81842;DHT22;71284;50.918;7.092;2024-03-02T11:32:15;17.00;36.90
81842;DHT22;71284;50.918;7.092;2024-03-02T11:34:42;17.40;36.50
81842;DHT22;71284;50.918;7.092;2024-03-02T11:37:23;17.70;35.80
81842;DHT22;71284;50.918;7.092;2024-03-02T11:39:49;18.50;34.50
81842;DHT22;71284;50.918;7.092;2024-03-02T11:42:16;19.10;33.60
81842;DHT22;71284;50.918;7.092;2024-03-02T11:44:43;18.90;34.00
81842;DHT22;71284;50.918;7.092;2024-03-02T11:47:10;19.40;33.00
81842;DHT22;71284;50.918;7.092;2024-03-02T11:49:42;19.50;33.20
81842;DHT22;71284;50.918;7.092;2024-03-02T11:52:08;18.90;33.80
81842;DHT22;71284;50.918;7.092;2024-03-02T11:54:34;18.10;35.00
81842;DHT22;71284;50.918;7.092;2024-03-02T11:57:03;17.70;35.90
81842;DHT22;71284;50.918;7.092;2024-03-02T11:59:29;17.80;35.60
81842;DHT22;71284;50.918;7.092;2024-03-02T12:01:56;17.40;36.30
81842;DHT22;71284;50.918;7.092;2024-03-02T12:04:22;17.60;36.20
81842;DHT22;71284;50.918;7.092;2024-03-02T12:06:58;18.30;35.00
81842;DHT22;71284;50.918;7.092;2024-03-02T12:09:23;19.00;34.60
81842;DHT22;71284;50.918;7.092;2024-03-02T12:12:00;18.90;34.70
81842;DHT22;71284;50.918;7.092;2024-03-02T12:14:16;18.90;34.30
81842;DHT22;71284;50.918;7.092;2024-03-02T12:16:44;18.90;34.30
81842;DHT22;71284;50.918;7.092;2024-03-02T12:19:10;18.10;35.50
81842;DHT22;71284;50.918;7.092;2024-03-02T12:21:37;17.60;36.20
81842;DHT22;71284;50.918;7.092;2024-03-02T12:24:04;17.30;36.60
81842;DHT22;71284;50.918;7.092;2024-03-02T12:26:30;17.20;36.90
81842;DHT22;71284;50.918;7.092;2024-03-02T12:28:57;17.40;36.90
81842;DHT22;71284;50.918;7.092;2024-03-02T12:31:23;17.30;37.50
81842;DHT22;71284;50.918;7.092;2024-03-02T12:33:50;17.70;37.40
81842;DHT22;71284;50.918;7.092;2024-03-02T12:36:16;17.80;36.10
81842;DHT22;71284;50.918;7.092;2024-03-02T12:38:43;17.60;36.50
81842;DHT22;71284;50.918;7.092;2024-03-02T12:41:10;17.70;36.70
81842;DHT22;71284;50.918;7.092;2024-03-02T12:43:38;17.60;36.80
81842;DHT22;71284;50.918;7.092;2024-03-02T12:46:03;17.40;37.10
81842;DHT22;71284;50.918;7.092;2024-03-02T12:48:29;17.60;37.10
81842;DHT22;71284;50.918;7.092;2024-03-02T12:50:56;18.00;36.40
81842;DHT22;71284;50.918;7.092;2024-03-02T12:53:23;17.50;37.00
81842;DHT22;71284;50.918;7.092;2024-03-02T12:55:49;17.10;37.50
81842;DHT22;71284;50.918;7.092;2024-03-02T12:58:18;17.40;37.20
81842;DHT22;71284;50.918;7.092;2024-03-02T13:00:43;17.70;36.90
81842;DHT22;71284;50.918;7.092;2024-03-02T13:03:11;18.60;36.10
81842;DHT22;71284;50.918;7.092;2024-03-02T13:05:36;19.40;34.30
81842;DHT22;71284;50.918;7.092;2024-03-02T13:08:04;19.60;33.80
81842;DHT22;71284;50.918;7.092;2024-03-02T13:10:30;19.40;34.50
81842;DHT22;71284;50.918;7.092;2024-03-02T13:12:57;18.80;34.70
81842;DHT22;71284;50.918;7.092;2024-03-02T13:15:25;19.00;34.90
81842;DHT22;71284;50.918;7.092;2024-03-02T13:17:50;19.40;33.70
81842;DHT22;71284;50.918;7.092;2024-03-02T13:20:17;19.70;33.50
81842;DHT22;71284;50.918;7.092;2024-03-02T13:22:43;19.90;33.20
81842;DHT22;71284;50.918;7.092;2024-03-02T13:25:10;19.70;33.90
81842;DHT22;71284;50.918;7.092;2024-03-02T13:27:36;19.20;34.10
81842;DHT22;71284;50.918;7.092;2024-03-02T13:30:04;18.90;34.90
81842;DHT22;71284;50.918;7.092;2024-03-02T13:32:33;18.70;35.10
81842;DHT22;71284;50.918;7.092;2024-03-02T13:34:59;18.80;34.90
81842;DHT22;71284;50.918;7.092;2024-03-02T13:37:26;19.00;34.30
81842;DHT22;71284;50.918;7.092;2024-03-02T13:39:53;19.10;34.50
81842;DHT22;71284;50.918;7.092;2024-03-02T13:42:19;18.90;35.00
81842;DHT22;71284;50.918;7.092;2024-03-02T13:44:46;18.40;35.80
81842;DHT22;71284;50.918;7.092;2024-03-02T13:47:12;18.30;36.20
81842;DHT22;71284;50.918;7.092;2024-03-02T13:49:39;18.00;36.50
81842;DHT22;71284;50.918;7.092;2024-03-02T13:52:06;17.50;37.10
81842;DHT22;71284;50.918;7.092;2024-03-02T13:54:40;17.90;37.00
81842;DHT22;71284;50.918;7.092;2024-03-02T13:57:06;17.70;37.50
81842;DHT22;71284;50.918;7.092;2024-03-02T13:59:33;18.30;36.50
81842;DHT22;71284;50.918;7.092;2024-03-02T14:01:59;18.20;35.90
81842;DHT22;71284;50.918;7.092;2024-03-02T14:04:26;18.40;36.00
81842;DHT22;71284;50.918;7.092;2024-03-02T14:06:52;18.00;36.10
81842;DHT22;71284;50.918;7.092;2024-03-02T14:09:19;17.40;37.00
81842;DHT22;71284;50.918;7.092;2024-03-02T14:11:46;17.30;37.40
81842;DHT22;71284;50.918;7.092;2024-03-02T14:14:12;17.30;37.20
81842;DHT22;71284;50.918;7.092;2024-03-02T14:16:39;17.70;36.80
81842;DHT22;71284;50.918;7.092;2024-03-02T14:19:05;18.10;36.70
81842;DHT22;71284;50.918;7.092;2024-03-02T14:21:32;18.30;35.40
81842;DHT22;71284;50.918;7.092;2024-03-02T14:23:58;17.50;36.50
81842;DHT22;71284;50.918;7.092;2024-03-02T14:26:25;17.50;36.60
81842;DHT22;71284;50.918;7.092;2024-03-02T14:28:52;17.50;36.60
81842;DHT22;71284;50.918;7.092;2024-03-02T14:31:18;17.50;36.60
81842;DHT22;71284;50.918;7.092;2024-03-02T14:33:45;17.20;37.00
81842;DHT22;71284;50.918;7.092;2024-03-02T14:36:11;17.00;36.60
81842;DHT22;71284;50.918;7.092;2024-03-02T14:38:38;16.80;37.00
81842;DHT22;71284;50.918;7.092;2024-03-02T14:41:05;16.70;37.40
81842;DHT22;71284;50.918;7.092;2024-03-02T14:43:31;16.90;37.20
81842;DHT22;71284;50.918;7.092;2024-03-02T14:45:58;17.00;37.20
81842;DHT22;71284;50.918;7.092;2024-03-02T14:48:24;17.10;36.90
81842;DHT22;71284;50.918;7.092;2024-03-02T14:50:51;16.90;37.10
81842;DHT22;71284;50.918;7.092;2024-03-02T14:53:18;16.70;37.20
81842;DHT22;71284;50.918;7.092;2024-03-02T14:55:44;16.60;37.20
81842;DHT22;71284;50.918;7.092;2024-03-02T14:58:11;16.60;37.30
81842;DHT22;71284;50.918;7.092;2024-03-02T15:00:37;16.60;37.60
81842;DHT22;71284;50.918;7.092;2024-03-02T15:03:04;16.80;37.20
81842;DHT22;71284;50.918;7.092;2024-03-02T15:05:31;17.10;36.60
81842;DHT22;71284;50.918;7.092;2024-03-02T15:07:57;16.90;37.70
81842;DHT22;71284;50.918;7.092;2024-03-02T15:10:24;16.90;37.00
81842;DHT22;71284;50.918;7.092;2024-03-02T15:12:50;16.90;36.90
81842;DHT22;71284;50.918;7.092;2024-03-02T15:15:17;16.60;36.70
81842;DHT22;71284;50.918;7.092;2024-03-02T15:17:44;16.70;37.10
81842;DHT22;71284;50.918;7.092;2024-03-02T15:20:10;16.50;37.20
81842;DHT22;71284;50.918;7.092;2024-03-02T15:22:37;16.40;37.40
81842;DHT22;71284;50.918;7.092;2024-03-02T15:25:04;16.60;36.80
81842;DHT22;71284;50.918;7.092;2024-03-02T15:27:30;17.00;36.40
81842;DHT22;71284;50.918;7.092;2024-03-02T15:29:57;17.20;36.00
81842;DHT22;71284;50.918;7.092;2024-03-02T15:32:23;17.20;35.80